sensor_id;sensor_type;location;lat;lon;timestamp;pressure;altitude;pressure_sealevel;temperature;humidity
59103;BME280;43999;51.660;5.616;2022-12-10T00:01:50;100647.91;;;-2.37;100.00
59103;BME280;43999;51.660;5.616;2022-12-10T00:04:20;100657.28;;;-2.37;100.00
59103;BME280;43999;51.660;5.616;2022-12-10T00:06:48;100653.88;;;-2.39;100.00
59103;BME280;43999;51.660;5.616;2022-12-10T00:09:18;100657.28;;;-2.39;100.00
59103;BME280;43999;51.660;5.616;2022-12-10T00:11:47;100658.16;;;-2.40;100.00
59103;BME280;43999;51.660;5.616;2022-12-10T00:14:15;100664.16;;;-2.39;100.00
59103;BME280;43999;51.660;5.616;2022-12-10T00:16:44;100662.44;;;-2.39;100.00
59103;BME280;43999;51.660;5.616;2022-12-10T00:19:11;100670.13;;;-2.37;100.00
59103;BME280;43999;51.660;5.616;2022-12-10T00:21:39;100647.91;;;-2.37;100.00
59103;BME280;43999;51.660;5.616;2022-12-10T00:24:07;100654.72;;;-2.36;100.00
59103;BME280;43999;51.660;5.616;2022-12-10T00:26:38;100656.44;;;-2.35;100.00
59103;BME280;43999;51.660;5.616;2022-12-10T00:29:08;100649.56;;;-2.31;100.00
59103;BME280;43999;51.660;5.616;2022-12-10T00:31:39;100654.66;;;-2.25;100.00
59103;BME280;43999;51.660;5.616;2022-12-10T00:34:09;100662.38;;;-2.22;100.00
59103;BME280;43999;51.660;5.616;2022-12-10T00:36:46;100659.78;;;-2.19;100.00
59103;BME280;43999;51.660;5.616;2022-12-10T00:39:19;100659.78;;;-2.17;100.00
59103;BME280;43999;51.660;5.616;2022-12-10T00:41:47;100654.66;;;-2.19;100.00
59103;BME280;43999;51.660;5.616;2022-12-10T00:44:16;100655.53;;;-2.20;100.00
59103;BME280;43999;51.660;5.616;2022-12-10T00:46:44;100664.09;;;-2.22;100.00
59103;BME280;43999;51.660;5.616;2022-12-10T00:49:12;100670.09;;;-2.26;100.00
59103;BME280;43999;51.660;5.616;2022-12-10T00:51:40;100656.41;;;-2.30;100.00
59103;BME280;43999;51.660;5.616;2022-12-10T00:54:07;100656.44;;;-2.35;100.00
59103;BME280;43999;51.660;5.616;2022-12-10T00:56:35;100651.31;;;-2.36;100.00
59103;BME280;43999;51.660;5.616;2022-12-10T00:59:03;100649.59;;;-2.40;100.00
59103;BME280;43999;51.660;5.616;2022-12-10T01:01:36;100644.47;;;-2.43;100.00
59103;BME280;43999;51.660;5.616;2022-12-10T01:04:09;100644.50;;;-2.46;100.00
59103;BME280;43999;51.660;5.616;2022-12-10T01:06:45;100635.94;;;-2.48;100.00
59103;BME280;43999;51.660;5.616;2022-12-10T01:09:17;100641.09;;;-2.52;100.00
59103;BME280;43999;51.660;5.616;2022-12-10T01:11:48;100637.69;;;-2.54;100.00
59103;BME280;43999;51.660;5.616;2022-12-10T01:14:23;100642.81;;;-2.55;100.00
59103;BME280;43999;51.660;5.616;2022-12-10T01:16:58;100655.66;;;-2.58;100.00
59103;BME280;43999;51.660;5.616;2022-12-10T01:19:31;100647.97;;;-2.60;100.00
59103;BME280;43999;51.660;5.616;2022-12-10T01:22:03;100658.22;;;-2.58;100.00
59103;BME280;43999;51.660;5.616;2022-12-10T01:24:31;100659.09;;;-2.64;100.00
59103;BME280;43999;51.660;5.616;2022-12-10T01:26:59;100664.22;;;-2.64;100.00
59103;BME280;43999;51.660;5.616;2022-12-10T01:29:27;100671.91;;;-2.64;100.00
59103;BME280;43999;51.660;5.616;2022-12-10T01:31:56;100659.09;;;-2.62;100.00
59103;BME280;43999;51.660;5.616;2022-12-10T01:34:24;100647.97;;;-2.61;100.00
59103;BME280;43999;51.660;5.616;2022-12-10T01:36:55;100656.50;;;-2.56;100.00
59103;BME280;43999;51.660;5.616;2022-12-10T01:39:24;100647.97;;;-2.57;100.00
59103;BME280;43999;51.660;5.616;2022-12-10T01:41:58;100649.66;;;-2.56;100.00
59103;BME280;43999;51.660;5.616;2022-12-10T01:46:59;100665.03;;;-2.54;100.00
59103;BME280;43999;51.660;5.616;2022-12-10T01:49:38;100656.50;;;-2.59;100.00
59103;BME280;43999;51.660;5.616;2022-12-10T01:52:09;100674.47;;;-2.55;100.00
59103;BME280;43999;51.660;5.616;2022-12-10T01:54:42;100672.75;;;-2.56;100.00
59103;BME280;43999;51.660;5.616;2022-12-10T01:57:18;100676.19;;;-2.57;100.00
59103;BME280;43999;51.660;5.616;2022-12-10T01:59:58;100680.44;;;-2.57;100.00
59103;BME280;43999;51.660;5.616;2022-12-10T02:02:55;100667.59;;;-2.57;100.00
59103;BME280;43999;51.660;5.616;2022-12-10T02:05:51;100672.75;;;-2.56;100.00
59103;BME280;43999;51.660;5.616;2022-12-10T02:08:39;100671.03;;;-2.55;100.00
59103;BME280;43999;51.660;5.616;2022-12-10T02:11:22;100677.84;;;-2.53;100.00
59103;BME280;43999;51.660;5.616;2022-12-10T02:14:12;100679.56;;;-2.50;100.00
59103;BME280;43999;51.660;5.616;2022-12-10T02:16:51;100674.44;;;-2.47;100.00
59103;BME280;43999;51.660;5.616;2022-12-10T02:22:23;100668.44;;;-2.41;100.00
59103;BME280;43999;51.660;5.616;2022-12-10T02:24:56;100677.81;;;-2.40;100.00
59103;BME280;43999;51.660;5.616;2022-12-10T02:27:33;100673.56;;;-2.38;100.00
59103;BME280;43999;51.660;5.616;2022-12-10T02:30:10;100664.16;;;-2.39;100.00
59103;BME280;43999;51.660;5.616;2022-12-10T02:32:39;100674.41;;;-2.41;100.00
59103;BME280;43999;51.660;5.616;2022-12-10T02:35:24;100671.84;;;-2.41;100.00
59103;BME280;43999;51.660;5.616;2022-12-10T02:38:09;100672.69;;;-2.43;100.00
59103;BME280;43999;51.660;5.616;2022-12-10T02:40:48;100674.44;;;-2.45;100.00
59103;BME280;43999;51.660;5.616;2022-12-10T02:43:22;100673.59;;;-2.44;100.00
59103;BME280;43999;51.660;5.616;2022-12-10T02:45:54;100676.16;;;-2.43;100.00
59103;BME280;43999;51.660;5.616;2022-12-10T02:48:24;100671.00;;;-2.41;100.00
59103;BME280;43999;51.660;5.616;2022-12-10T02:50:53;100668.44;;;-2.41;100.00
59103;BME280;43999;51.660;5.616;2022-12-10T02:53:21;100672.69;;;-2.42;100.00
59103;BME280;43999;51.660;5.616;2022-12-10T02:56:20;100673.59;;;-2.46;100.00
59103;BME280;43999;51.660;5.616;2022-12-10T03:02:29;100671.84;;;-2.44;100.00
59103;BME280;43999;51.660;5.616;2022-12-10T03:05:19;100673.56;;;-2.43;100.00
59103;BME280;43999;51.660;5.616;2022-12-10T03:13:21;100676.16;;;-2.46;100.00
59103;BME280;43999;51.660;5.616;2022-12-10T03:15:56;100678.72;;;-2.47;100.00
59103;BME280;43999;51.660;5.616;2022-12-10T03:18:27;100678.72;;;-2.49;100.00
59103;BME280;43999;51.660;5.616;2022-12-10T03:21:04;100672.72;;;-2.51;100.00
59103;BME280;43999;51.660;5.616;2022-12-10T03:23:37;100669.31;;;-2.55;100.00
59103;BME280;43999;51.660;5.616;2022-12-10T03:26:10;100666.78;;;-2.58;100.00
59103;BME280;43999;51.660;5.616;2022-12-10T03:28:42;100671.91;;;-2.62;100.00
59103;BME280;43999;51.660;5.616;2022-12-10T03:31:23;100671.06;;;-2.64;100.00
59103;BME280;43999;51.660;5.616;2022-12-10T03:33:52;100673.63;;;-2.66;100.00
59103;BME280;43999;51.660;5.616;2022-12-10T03:36:23;100686.47;;;-2.66;100.00
59103;BME280;43999;51.660;5.616;2022-12-10T03:38:52;100681.34;;;-2.64;100.00
59103;BME280;43999;51.660;5.616;2022-12-10T03:41:21;100683.03;;;-2.63;100.00
59103;BME280;43999;51.660;5.616;2022-12-10T03:43:54;100669.34;;;-2.62;100.00
59103;BME280;43999;51.660;5.616;2022-12-10T03:46:25;100680.44;;;-2.62;100.00
59103;BME280;43999;51.660;5.616;2022-12-10T03:48:56;100683.88;;;-2.61;100.00
59103;BME280;43999;51.660;5.616;2022-12-10T03:51:24;100672.75;;;-2.60;100.00
59103;BME280;43999;51.660;5.616;2022-12-10T03:53:52;100679.59;;;-2.61;100.00
59103;BME280;43999;51.660;5.616;2022-12-10T03:56:21;100672.75;;;-2.59;100.00
59103;BME280;43999;51.660;5.616;2022-12-10T03:58:48;100689.84;;;-2.59;100.00
59103;BME280;43999;51.660;5.616;2022-12-10T04:01:16;100679.59;;;-2.56;100.00
59103;BME280;43999;51.660;5.616;2022-12-10T04:03:44;100680.44;;;-2.57;100.00
59103;BME280;43999;51.660;5.616;2022-12-10T04:06:15;100675.31;;;-2.59;100.00
59103;BME280;43999;51.660;5.616;2022-12-10T04:08:45;100683.00;;;-2.60;100.00
59103;BME280;43999;51.660;5.616;2022-12-10T04:11:15;100689.00;;;-2.60;100.00
59103;BME280;43999;51.660;5.616;2022-12-10T04:13:43;100691.59;;;-2.61;100.00
59103;BME280;43999;51.660;5.616;2022-12-10T04:16:32;100700.97;;;-2.62;100.00
59103;BME280;43999;51.660;5.616;2022-12-10T04:21:32;100701.84;;;-2.67;100.00
59103;BME280;43999;51.660;5.616;2022-12-10T04:24:27;100699.28;;;-2.71;100.00
59103;BME280;43999;51.660;5.616;2022-12-10T04:27:19;100701.03;;;-2.77;100.00
59103;BME280;43999;51.660;5.616;2022-12-10T04:29:52;100695.91;;;-2.82;100.00
59103;BME280;43999;51.660;5.616;2022-12-10T04:32:22;100698.47;;;-2.82;100.00
59103;BME280;43999;51.660;5.616;2022-12-10T04:34:51;100695.91;;;-2.80;100.00
59103;BME280;43999;51.660;5.616;2022-12-10T04:37:20;100701.88;;;-2.77;100.00
59103;BME280;43999;51.660;5.616;2022-12-10T04:39:49;100700.16;;;-2.76;100.00
59103;BME280;43999;51.660;5.616;2022-12-10T04:42:18;100702.72;;;-2.78;100.00
59103;BME280;43999;51.660;5.616;2022-12-10T04:44:46;100707.84;;;-2.76;100.00
59103;BME280;43999;51.660;5.616;2022-12-10T04:47:14;100699.31;;;-2.77;100.00
59103;BME280;43999;51.660;5.616;2022-12-10T04:49:42;100694.19;;;-2.75;100.00
59103;BME280;43999;51.660;5.616;2022-12-10T04:52:12;100701.88;;;-2.77;100.00
59103;BME280;43999;51.660;5.616;2022-12-10T04:54:42;100701.03;;;-2.77;100.00
59103;BME280;43999;51.660;5.616;2022-12-10T04:57:11;100707.00;;;-2.75;100.00
59103;BME280;43999;51.660;5.616;2022-12-10T04:59:38;100703.59;;;-2.74;100.00
59103;BME280;43999;51.660;5.616;2022-12-10T05:02:06;100712.13;;;-2.72;100.00
59103;BME280;43999;51.660;5.616;2022-12-10T05:04:34;100703.59;;;-2.71;100.00
59103;BME280;43999;51.660;5.616;2022-12-10T05:07:02;100709.56;;;-2.72;100.00
59103;BME280;43999;51.660;5.616;2022-12-10T05:09:30;100708.72;;;-2.69;100.00
59103;BME280;43999;51.660;5.616;2022-12-10T05:11:58;100706.13;;;-2.66;100.00
59103;BME280;43999;51.660;5.616;2022-12-10T05:14:25;100710.38;;;-2.64;100.00
59103;BME280;43999;51.660;5.616;2022-12-10T05:16:53;100707.81;;;-2.59;100.00
59103;BME280;43999;51.660;5.616;2022-12-10T05:19:21;100705.25;;;-2.59;100.00
59103;BME280;43999;51.660;5.616;2022-12-10T05:21:50;100706.09;;;-2.56;100.00
59103;BME280;43999;51.660;5.616;2022-12-10T05:24:37;100710.38;;;-2.58;100.00
59103;BME280;43999;51.660;5.616;2022-12-10T05:27:05;100699.28;;;-2.64;100.00
59103;BME280;43999;51.660;5.616;2022-12-10T05:29:33;100702.69;;;-2.67;100.00
59103;BME280;43999;51.660;5.616;2022-12-10T05:32:02;100706.97;;;-2.64;100.00
59103;BME280;43999;51.660;5.616;2022-12-10T05:34:30;100705.25;;;-2.64;100.00
59103;BME280;43999;51.660;5.616;2022-12-10T05:36:58;100713.78;;;-2.59;100.00
59103;BME280;43999;51.660;5.616;2022-12-10T05:39:25;100714.66;;;-2.58;100.00
59103;BME280;43999;51.660;5.616;2022-12-10T05:41:52;100716.34;;;-2.57;100.00
59103;BME280;43999;51.660;5.616;2022-12-10T05:44:20;100712.09;;;-2.55;100.00
59103;BME280;43999;51.660;5.616;2022-12-10T05:46:48;100708.66;;;-2.51;100.00
59103;BME280;43999;51.660;5.616;2022-12-10T05:49:15;100707.78;;;-2.48;100.00
59103;BME280;43999;51.660;5.616;2022-12-10T05:51:43;100711.19;;;-2.48;100.00
59103;BME280;43999;51.660;5.616;2022-12-10T05:54:11;100708.63;;;-2.46;100.00
59103;BME280;43999;51.660;5.616;2022-12-10T05:56:38;100712.06;;;-2.47;100.00
59103;BME280;43999;51.660;5.616;2022-12-10T05:59:06;100717.22;;;-2.47;100.00
59103;BME280;43999;51.660;5.616;2022-12-10T06:01:42;100706.94;;;-2.47;100.00
59103;BME280;43999;51.660;5.616;2022-12-10T06:04:10;100706.94;;;-2.46;100.00
59103;BME280;43999;51.660;5.616;2022-12-10T06:06:39;100709.50;;;-2.40;100.00
59103;BME280;43999;51.660;5.616;2022-12-10T06:09:12;100713.75;;;-2.42;100.00
59103;BME280;43999;51.660;5.616;2022-12-10T06:11:41;100712.94;;;-2.48;100.00
59103;BME280;43999;51.660;5.616;2022-12-10T06:14:10;100706.94;;;-2.49;100.00
59103;BME280;43999;51.660;5.616;2022-12-10T06:16:39;100704.38;;;-2.47;100.00
59103;BME280;43999;51.660;5.616;2022-12-10T06:19:07;100706.06;;;-2.46;100.00
59103;BME280;43999;51.660;5.616;2022-12-10T06:21:35;100712.91;;;-2.44;100.00
59103;BME280;43999;51.660;5.616;2022-12-10T06:24:02;100716.31;;;-2.40;100.00
59103;BME280;43999;51.660;5.616;2022-12-10T06:26:30;100718.03;;;-2.41;100.00
59103;BME280;43999;51.660;5.616;2022-12-10T06:28:58;100730.03;;;-2.38;100.00
59103;BME280;43999;51.660;5.616;2022-12-10T06:31:27;100721.44;;;-2.40;100.00
59103;BME280;43999;51.660;5.616;2022-12-10T06:33:54;100732.59;;;-2.38;100.00
59103;BME280;43999;51.660;5.616;2022-12-10T06:36:22;100725.72;;;-2.35;100.00
59103;BME280;43999;51.660;5.616;2022-12-10T06:38:50;100729.16;;;-2.37;100.00
59103;BME280;43999;51.660;5.616;2022-12-10T06:41:18;100737.72;;;-2.37;100.00
59103;BME280;43999;51.660;5.616;2022-12-10T06:43:50;100738.56;;;-2.39;100.00
59103;BME280;43999;51.660;5.616;2022-12-10T06:46:20;100736.00;;;-2.41;100.00
59103;BME280;43999;51.660;5.616;2022-12-10T06:48:48;100735.16;;;-2.41;100.00
59103;BME280;43999;51.660;5.616;2022-12-10T06:51:16;100737.72;;;-2.46;100.00
59103;BME280;43999;51.660;5.616;2022-12-10T06:53:45;100731.72;;;-2.49;100.00
59103;BME280;43999;51.660;5.616;2022-12-10T06:56:15;100735.19;;;-2.52;100.00
59103;BME280;43999;51.660;5.616;2022-12-10T06:58:46;100736.03;;;-2.55;100.00
59103;BME280;43999;51.660;5.616;2022-12-10T07:01:20;100738.59;;;-2.52;100.00
59103;BME280;43999;51.660;5.616;2022-12-10T07:03:53;100737.75;;;-2.52;100.00
59103;BME280;43999;51.660;5.616;2022-12-10T07:06:24;100734.31;;;-2.56;100.00
59103;BME280;43999;51.660;5.616;2022-12-10T07:08:52;100748.84;;;-2.53;100.00
59103;BME280;43999;51.660;5.616;2022-12-10T07:11:22;100746.28;;;-2.52;100.00
59103;BME280;43999;51.660;5.616;2022-12-10T07:13:52;100742.88;;;-2.49;100.00
59103;BME280;43999;51.660;5.616;2022-12-10T07:16:25;100753.13;;;-2.44;100.00
59103;BME280;43999;51.660;5.616;2022-12-10T07:18:56;100752.25;;;-2.45;100.00
59103;BME280;43999;51.660;5.616;2022-12-10T07:21:31;100754.81;;;-2.42;100.00
59103;BME280;43999;51.660;5.616;2022-12-10T07:24:10;100764.22;;;-2.39;100.00
59103;BME280;43999;51.660;5.616;2022-12-10T07:26:43;100759.09;;;-2.35;100.00
59103;BME280;43999;51.660;5.616;2022-12-10T07:29:14;100761.66;;;-2.31;100.00
59103;BME280;43999;51.660;5.616;2022-12-10T07:31:44;100765.06;;;-2.31;100.00
59103;BME280;43999;51.660;5.616;2022-12-10T07:34:13;100769.34;;;-2.31;100.00
59103;BME280;43999;51.660;5.616;2022-12-10T07:36:41;100763.38;;;-2.30;100.00
59103;BME280;43999;51.660;5.616;2022-12-10T07:39:10;100770.19;;;-2.31;100.00
59103;BME280;43999;51.660;5.616;2022-12-10T07:41:53;100782.19;;;-2.30;100.00
59103;BME280;43999;51.660;5.616;2022-12-10T07:44:22;100785.59;;;-2.32;100.00
59103;BME280;43999;51.660;5.616;2022-12-10T07:46:53;100792.44;;;-2.33;100.00
59103;BME280;43999;51.660;5.616;2022-12-10T07:49:21;100789.03;;;-2.33;100.00
59103;BME280;43999;51.660;5.616;2022-12-10T07:51:50;100786.47;;;-2.35;100.00
59103;BME280;43999;51.660;5.616;2022-12-10T07:54:18;100783.03;;;-2.36;100.00
59103;BME280;43999;51.660;5.616;2022-12-10T07:56:47;100787.31;;;-2.39;100.00
59103;BME280;43999;51.660;5.616;2022-12-10T07:59:14;100789.06;;;-2.41;100.00
59103;BME280;43999;51.660;5.616;2022-12-10T08:01:42;100780.47;;;-2.37;100.00
59103;BME280;43999;51.660;5.616;2022-12-10T08:04:10;100792.44;;;-2.35;100.00
59103;BME280;43999;51.660;5.616;2022-12-10T08:06:38;100789.88;;;-2.33;100.00
59103;BME280;43999;51.660;5.616;2022-12-10T08:09:06;100800.97;;;-2.26;100.00
59103;BME280;43999;51.660;5.616;2022-12-10T08:11:33;100797.56;;;-2.25;100.00
59103;BME280;43999;51.660;5.616;2022-12-10T08:14:01;100804.44;;;-2.26;100.00
59103;BME280;43999;51.660;5.616;2022-12-10T08:16:29;100806.13;;;-2.28;100.00
59103;BME280;43999;51.660;5.616;2022-12-10T08:19:00;100814.69;;;-2.27;100.00
59103;BME280;43999;51.660;5.616;2022-12-10T08:21:30;100811.25;;;-2.25;100.00
59103;BME280;43999;51.660;5.616;2022-12-10T08:23:59;100808.69;;;-2.22;100.00
59103;BME280;43999;51.660;5.616;2022-12-10T08:26:32;100807.84;;;-2.21;100.00
59103;BME280;43999;51.660;5.616;2022-12-10T08:29:00;100817.25;;;-2.18;100.00
59103;BME280;43999;51.660;5.616;2022-12-10T08:31:28;100823.22;;;-2.18;100.00
59103;BME280;43999;51.660;5.616;2022-12-10T08:34:03;100820.66;;;-2.16;100.00
59103;BME280;43999;51.660;5.616;2022-12-10T08:36:32;100824.06;;;-2.16;100.00
59103;BME280;43999;51.660;5.616;2022-12-10T08:39:00;100824.06;;;-2.16;100.00
59103;BME280;43999;51.660;5.616;2022-12-10T08:41:27;100823.22;;;-2.14;100.00
59103;BME280;43999;51.660;5.616;2022-12-10T08:43:55;100823.22;;;-2.14;100.00
59103;BME280;43999;51.660;5.616;2022-12-10T08:46:22;100836.91;;;-2.11;100.00
59103;BME280;43999;51.660;5.616;2022-12-10T08:48:52;100833.47;;;-2.07;100.00
59103;BME280;43999;51.660;5.616;2022-12-10T08:51:20;100829.19;;;-2.05;100.00
59103;BME280;43999;51.660;5.616;2022-12-10T08:53:48;100832.63;;;-2.04;100.00
59103;BME280;43999;51.660;5.616;2022-12-10T08:56:15;100834.31;;;-2.02;100.00
59103;BME280;43999;51.660;5.616;2022-12-10T08:58:43;100835.19;;;-2.04;100.00
59103;BME280;43999;51.660;5.616;2022-12-10T09:01:14;100836.03;;;-2.02;100.00
59103;BME280;43999;51.660;5.616;2022-12-10T09:03:44;100842.00;;;-1.99;100.00
59103;BME280;43999;51.660;5.616;2022-12-10T09:06:15;100837.75;;;-2.00;100.00
59103;BME280;43999;51.660;5.616;2022-12-10T09:08:45;100834.31;;;-2.02;100.00
59103;BME280;43999;51.660;5.616;2022-12-10T09:11:19;100840.34;;;-2.04;100.00
59103;BME280;43999;51.660;5.616;2022-12-10T09:13:49;100839.47;;;-2.11;100.00
59103;BME280;43999;51.660;5.616;2022-12-10T09:16:17;100845.47;;;-2.10;100.00
59103;BME280;43999;51.660;5.616;2022-12-10T09:18:45;100838.63;;;-2.10;100.00
59103;BME280;43999;51.660;5.616;2022-12-10T09:21:16;100851.44;;;-2.07;100.00
59103;BME280;43999;51.660;5.616;2022-12-10T09:23:44;100847.16;;;-2.06;100.00
59103;BME280;43999;51.660;5.616;2022-12-10T09:26:15;100846.31;;;-2.07;100.00
59103;BME280;43999;51.660;5.616;2022-12-10T09:28:44;100852.28;;;-2.05;100.00
59103;BME280;43999;51.660;5.616;2022-12-10T09:31:13;100862.56;;;-2.02;100.00
59103;BME280;43999;51.660;5.616;2022-12-10T09:33:50;100860.00;;;-2.00;100.00
59103;BME280;43999;51.660;5.616;2022-12-10T09:36:20;100866.84;;;-1.96;100.00
59103;BME280;43999;51.660;5.616;2022-12-10T09:38:49;100866.00;;;-1.98;100.00
59103;BME280;43999;51.660;5.616;2022-12-10T09:47:03;100873.69;;;-1.84;100.00
59103;BME280;43999;51.660;5.616;2022-12-10T09:49:40;100866.81;;;-1.84;100.00
59103;BME280;43999;51.660;5.616;2022-12-10T09:52:45;100874.53;;;-1.84;100.00
59103;BME280;43999;51.660;5.616;2022-12-10T09:55:21;100864.25;;;-1.82;100.00
59103;BME280;43999;51.660;5.616;2022-12-10T09:57:56;100870.22;;;-1.80;100.00
59103;BME280;43999;51.660;5.616;2022-12-10T10:00:39;100871.94;;;-1.74;100.00
59103;BME280;43999;51.660;5.616;2022-12-10T10:03:14;100873.66;;;-1.72;100.00
59103;BME280;43999;51.660;5.616;2022-12-10T10:05:47;100874.50;;;-1.73;100.00
59103;BME280;43999;51.660;5.616;2022-12-10T10:11:37;100877.91;;;-1.74;100.00
59103;BME280;43999;51.660;5.616;2022-12-10T10:14:26;100874.50;;;-1.71;100.00
59103;BME280;43999;51.660;5.616;2022-12-10T10:17:07;100885.59;;;-1.66;100.00
59103;BME280;43999;51.660;5.616;2022-12-10T10:19:42;100884.78;;;-1.70;100.00
59103;BME280;43999;51.660;5.616;2022-12-10T10:22:11;100883.94;;;-1.73;100.00
59103;BME280;43999;51.660;5.616;2022-12-10T10:24:44;100877.91;;;-1.72;100.00
59103;BME280;43999;51.660;5.616;2022-12-10T10:27:22;100889.91;;;-1.65;100.00
59103;BME280;43999;51.660;5.616;2022-12-10T10:29:57;100882.19;;;-1.67;100.00
59103;BME280;43999;51.660;5.616;2022-12-10T10:35:05;100884.75;;;-1.64;100.00
59103;BME280;43999;51.660;5.616;2022-12-10T10:37:40;100881.34;;;-1.63;100.00
59103;BME280;43999;51.660;5.616;2022-12-10T10:40:22;100882.16;;;-1.57;100.00
59103;BME280;43999;51.660;5.616;2022-12-10T10:42:55;100874.44;;;-1.56;100.00
59103;BME280;43999;51.660;5.616;2022-12-10T10:45:34;100879.59;;;-1.54;100.00
59103;BME280;43999;51.660;5.616;2022-12-10T10:48:16;100877.00;;;-1.51;100.00
59103;BME280;43999;51.660;5.616;2022-12-10T10:56:22;100876.16;;;-1.49;100.00
59103;BME280;43999;51.660;5.616;2022-12-10T11:01:53;100877.84;;;-1.48;100.00
59103;BME280;43999;51.660;5.616;2022-12-10T11:04:48;100877.84;;;-1.46;100.00
59103;BME280;43999;51.660;5.616;2022-12-10T11:07:32;100872.69;;;-1.41;100.00
59103;BME280;43999;51.660;5.616;2022-12-10T11:10:01;100870.94;;;-1.33;100.00
59103;BME280;43999;51.660;5.616;2022-12-10T11:12:39;100872.63;;;-1.29;100.00
59103;BME280;43999;51.660;5.616;2022-12-10T11:15:29;100869.19;;;-1.22;100.00
59103;BME280;43999;51.660;5.616;2022-12-10T11:17:57;100873.41;;;-1.16;100.00
59103;BME280;43999;51.660;5.616;2022-12-10T11:20:28;100868.25;;;-1.13;100.00
59103;BME280;43999;51.660;5.616;2022-12-10T11:23:12;100870.00;;;-1.17;100.00
59103;BME280;43999;51.660;5.616;2022-12-10T11:37:06;100868.28;;;-1.19;100.00
59103;BME280;43999;51.660;5.616;2022-12-10T11:45:16;100864.88;;;-1.20;100.00
59103;BME280;43999;51.660;5.616;2022-12-10T11:51:08;100871.78;;;-1.33;100.00
59103;BME280;43999;51.660;5.616;2022-12-10T12:09:02;100869.19;;;-1.25;100.00
59103;BME280;43999;51.660;5.616;2022-12-10T12:12:12;100876.03;;;-1.27;100.00
59103;BME280;43999;51.660;5.616;2022-12-10T12:14:49;100870.88;;;-1.27;100.00
59103;BME280;43999;51.660;5.616;2022-12-10T12:17:33;100870.88;;;-1.26;100.00
59103;BME280;43999;51.660;5.616;2022-12-10T12:20:25;100869.19;;;-1.23;100.00
59103;BME280;43999;51.660;5.616;2022-12-10T12:23:05;100859.75;;;-1.23;100.00
59103;BME280;43999;51.660;5.616;2022-12-10T12:25:46;100856.31;;;-1.22;100.00
59103;BME280;43999;51.660;5.616;2022-12-10T12:28:37;100861.47;;;-1.25;100.00
59103;BME280;43999;51.660;5.616;2022-12-10T12:31:34;100863.16;;;-1.22;100.00
59103;BME280;43999;51.660;5.616;2022-12-10T12:34:30;100863.16;;;-1.22;100.00
59103;BME280;43999;51.660;5.616;2022-12-10T12:37:36;100861.44;;;-1.20;100.00
59103;BME280;43999;51.660;5.616;2022-12-10T12:40:23;100869.19;;;-1.22;100.00
59103;BME280;43999;51.660;5.616;2022-12-10T12:43:08;100865.72;;;-1.21;100.00
59103;BME280;43999;51.660;5.616;2022-12-10T12:45:47;100872.59;;;-1.21;100.00
59103;BME280;43999;51.660;5.616;2022-12-10T12:48:24;100877.75;;;-1.24;100.00
59103;BME280;43999;51.660;5.616;2022-12-10T12:53:40;100868.31;;;-1.27;100.00
59103;BME280;43999;51.660;5.616;2022-12-10T13:01:54;100864.09;;;-1.36;100.00
59103;BME280;43999;51.660;5.616;2022-12-10T13:04:29;100874.38;;;-1.33;100.00
59103;BME280;43999;51.660;5.616;2022-12-10T13:09:45;100872.66;;;-1.38;100.00
59103;BME280;43999;51.660;5.616;2022-12-10T13:12:48;100869.25;;;-1.37;100.00
59103;BME280;43999;51.660;5.616;2022-12-10T13:18:04;100869.22;;;-1.36;100.00
59103;BME280;43999;51.660;5.616;2022-12-10T13:21:26;100858.94;;;-1.31;100.00
59103;BME280;43999;51.660;5.616;2022-12-10T13:24:10;100863.22;;;-1.32;100.00
59103;BME280;43999;51.660;5.616;2022-12-10T13:27:01;100859.78;;;-1.34;100.00
59103;BME280;43999;51.660;5.616;2022-12-10T13:29:56;100858.94;;;-1.33;100.00
59103;BME280;43999;51.660;5.616;2022-12-10T13:43:37;100876.03;;;-1.27;100.00
59103;BME280;43999;51.660;5.616;2022-12-10T13:46:34;100881.16;;;-1.27;100.00
59103;BME280;43999;51.660;5.616;2022-12-10T13:49:24;100870.88;;;-1.27;100.00
59103;BME280;43999;51.660;5.616;2022-12-10T13:52:07;100875.19;;;-1.26;100.00
59103;BME280;43999;51.660;5.616;2022-12-10T13:58:17;100881.22;;;-1.32;100.00
59103;BME280;43999;51.660;5.616;2022-12-10T14:01:16;100882.91;;;-1.32;100.00
59103;BME280;43999;51.660;5.616;2022-12-10T14:06:40;100887.22;;;-1.33;100.00
59103;BME280;43999;51.660;5.616;2022-12-10T14:09:21;100900.06;;;-1.30;100.00
59103;BME280;43999;51.660;5.616;2022-12-10T14:12:18;100902.63;;;-1.25;100.00
59103;BME280;43999;51.660;5.616;2022-12-10T14:15:04;100905.16;;;-1.22;100.00
59103;BME280;43999;51.660;5.616;2022-12-10T14:17:38;100898.28;;;-1.20;100.00
59103;BME280;43999;51.660;5.616;2022-12-10T14:20:15;100904.28;;;-1.19;100.00
59103;BME280;43999;51.660;5.616;2022-12-10T14:22:48;100898.28;;;-1.20;100.00
59103;BME280;43999;51.660;5.616;2022-12-10T14:25:22;100912.88;;;-1.19;100.00
59103;BME280;43999;51.660;5.616;2022-12-10T14:27:52;100916.28;;;-1.15;100.00
59103;BME280;43999;51.660;5.616;2022-12-10T14:30:23;100912.84;;;-1.14;100.00
59103;BME280;43999;51.660;5.616;2022-12-10T14:33:02;100912.84;;;-1.13;100.00
59103;BME280;43999;51.660;5.616;2022-12-10T14:35:30;100907.72;;;-1.14;100.00
59103;BME280;43999;51.660;5.616;2022-12-10T14:37:59;100904.25;;;-1.15;100.00
59103;BME280;43999;51.660;5.616;2022-12-10T14:40:36;100900.00;;;-1.17;100.00
59103;BME280;43999;51.660;5.616;2022-12-10T14:43:13;100904.28;;;-1.18;100.00
59103;BME280;43999;51.660;5.616;2022-12-10T14:45:49;100917.13;;;-1.19;100.00
59103;BME280;43999;51.660;5.616;2022-12-10T14:48:20;100915.47;;;-1.23;100.00
59103;BME280;43999;51.660;5.616;2022-12-10T14:50:49;100912.00;;;-1.24;100.00
59103;BME280;43999;51.660;5.616;2022-12-10T14:53:24;100912.91;;;-1.25;100.00
59103;BME280;43999;51.660;5.616;2022-12-10T14:56:00;100905.22;;;-1.31;100.00
59103;BME280;43999;51.660;5.616;2022-12-10T14:58:44;100912.09;;;-1.33;100.00